Time;durP1;ratioP1;P1;durP2;ratioP2;P2;SDS_P1;SDS_P2;PMS_P1;PMS_P2;Temp;Humidity;BMP_temperature;BMP_pressure;BME280_temperature;BME280_humidity;BME280_pressure;Samples;Min_cycle;Max_cycle;Signal;HPM_P1;HPM_P2
2022/05/29 00:00:17;;;;;;;11.13;3.03;;;;;;;;;;5074567;28;20028;-68
2022/05/29 00:02:43;;;;;;;8.98;2.60;;;;;;;;;;5074118;28;20024;-67
2022/05/29 00:05:11;;;;;;;9.68;3.17;;;;;;;;;;5074126;28;20067;-68
2022/05/29 00:07:37;;;;;;;13.73;3.35;;;;;;;;;;5074299;28;20477;-67
2022/05/29 00:10:05;;;;;;;12.20;3.10;;;;;;;;;;5073550;28;20290;-68
2022/05/29 00:12:31;;;;;;;11.85;2.75;;;;;;;;;;5074078;28;20051;-68
2022/05/29 00:14:57;;;;;;;9.52;2.80;;;;;;;;;;5073875;28;20082;-68
2022/05/29 00:17:24;;;;;;;9.88;2.90;;;;;;;;;;5073887;28;20055;-68
2022/05/29 00:19:50;;;;;;;8.60;3.08;;;;;;;;;;5073738;28;20051;-68
2022/05/29 00:22:17;;;;;;;10.18;3.05;;;;;;;;;;5073916;28;20033;-68
2022/05/29 00:24:45;;;;;;;9.65;3.10;;;;;;;;;;5074012;28;20473;-68
2022/05/29 00:27:11;;;;;;;13.95;3.72;;;;;;;;;;5073708;28;20020;-68
2022/05/29 00:29:38;;;;;;;11.85;3.17;;;;;;;;;;5061470;28;20428;-67
2022/05/29 00:32:05;;;;;;;13.07;4.07;;;;;;;;;;5053490;28;20051;-68
2022/05/29 00:34:31;;;;;;;8.10;2.70;;;;;;;;;;5053640;28;20021;-68
2022/05/29 00:36:58;;;;;;;6.18;2.60;;;;;;;;;;5053238;28;20028;-68
2022/05/29 00:39:25;;;;;;;5.38;2.25;;;;;;;;;;5053890;28;20021;-67
2022/05/29 00:41:51;;;;;;;8.00;2.45;;;;;;;;;;5053415;28;20029;-67
2022/05/29 00:44:20;;;;;;;10.38;3.15;;;;;;;;;;5053037;28;20037;-67
2022/05/29 00:46:49;;;;;;;12.38;3.45;;;;;;;;;;5053469;28;20033;-67
2022/05/29 00:49:16;;;;;;;9.85;2.85;;;;;;;;;;5053358;28;20035;-67
2022/05/29 00:51:52;;;;;;;10.60;2.85;;;;;;;;;;5053364;28;20029;-67
2022/05/29 00:54:18;;;;;;;17.13;2.63;;;;;;;;;;5070802;28;20025;-67
2022/05/29 00:56:44;;;;;;;17.08;3.50;;;;;;;;;;5072735;28;20044;-67
2022/05/29 00:59:13;;;;;;;9.65;2.90;;;;;;;;;;5072439;28;20090;-67
2022/05/29 01:01:40;;;;;;;6.20;2.50;;;;;;;;;;5071911;28;20386;-67
2022/05/29 01:04:07;;;;;;;10.73;2.35;;;;;;;;;;5071761;28;20032;-68
2022/05/29 01:06:34;;;;;;;9.43;2.53;;;;;;;;;;5059738;28;20409;-67
2022/05/29 01:09:00;;;;;;;6.60;2.53;;;;;;;;;;5052785;28;20036;-67
2022/05/29 01:11:43;;;;;;;4.65;2.08;;;;;;;;;;5053164;28;20025;-67
2022/05/29 01:14:12;;;;;;;8.30;3.25;;;;;;;;;;5052565;28;20366;-67
2022/05/29 01:16:45;;;;;;;13.95;3.15;;;;;;;;;;5053053;28;20477;-67
2022/05/29 01:19:30;;;;;;;9.77;2.50;;;;;;;;;;5052656;28;20048;-67
2022/05/29 01:22:06;;;;;;;14.85;3.22;;;;;;;;;;5052898;28;20059;-67
2022/05/29 01:24:35;;;;;;;4.60;2.30;;;;;;;;;;5052894;28;20028;-67
2022/05/29 01:27:06;;;;;;;15.25;3.17;;;;;;;;;;5068866;28;20024;-67
2022/05/29 01:29:38;;;;;;;7.75;2.50;;;;;;;;;;5072261;28;20029;-67
2022/05/29 01:32:09;;;;;;;11.55;2.92;;;;;;;;;;5072486;28;20043;-67
2022/05/29 01:34:41;;;;;;;7.80;2.70;;;;;;;;;;5062349;28;20033;-67
2022/05/29 01:37:22;;;;;;;12.82;2.70;;;;;;;;;;5052393;28;20071;-67
2022/05/29 01:40:07;;;;;;;12.07;3.75;;;;;;;;;;5052661;28;20386;-67
2022/05/29 01:42:33;;;;;;;14.73;2.83;;;;;;;;;;5052145;28;20029;-67
2022/05/29 01:45:23;;;;;;;14.00;3.30;;;;;;;;;;5065016;28;20028;-67
2022/05/29 01:47:59;;;;;;;11.82;3.30;;;;;;;;;;5072337;28;20480;-67
2022/05/29 01:50:45;;;;;;;16.10;4.10;;;;;;;;;;5072164;28;20457;-67
2022/05/29 01:53:14;;;;;;;8.20;3.17;;;;;;;;;;5071764;28;20036;-67
2022/05/29 01:55:55;;;;;;;16.58;3.75;;;;;;;;;;5072279;28;20037;-67
2022/05/29 01:58:24;;;;;;;13.77;3.20;;;;;;;;;;5071574;28;20051;-67
2022/05/29 02:00:53;;;;;;;7.63;3.83;;;;;;;;;;5072155;28;20021;-67
2022/05/29 02:03:22;;;;;;;7.70;3.10;;;;;;;;;;5071644;28;20032;-67
2022/05/29 02:05:59;;;;;;;14.57;3.63;;;;;;;;;;5072206;28;20028;-67
2022/05/29 02:08:32;;;;;;;16.00;3.53;;;;;;;;;;5072182;28;20040;-67
2022/05/29 02:11:06;;;;;;;15.40;3.30;;;;;;;;;;5064994;28;20029;-67
2022/05/29 02:13:42;;;;;;;10.82;2.95;;;;;;;;;;5052347;28;20476;-67
2022/05/29 02:16:11;;;;;;;11.05;3.42;;;;;;;;;;5051929;28;20040;-67
2022/05/29 02:18:37;;;;;;;8.32;2.90;;;;;;;;;;5052080;28;20469;-67
2022/05/29 02:21:13;;;;;;;15.55;3.47;;;;;;;;;;5064855;28;20322;-67
2022/05/29 02:23:42;;;;;;;15.93;3.45;;;;;;;;;;5078770;28;20028;-67
2022/05/29 02:26:11;;;;;;;12.13;3.38;;;;;;;;;;5078403;28;20497;-67
2022/05/29 02:28:39;;;;;;;16.00;3.83;;;;;;;;;;5078833;28;20046;-67
2022/05/29 02:31:17;;;;;;;7.88;3.22;;;;;;;;;;5078496;28;20467;-67
2022/05/29 02:33:48;;;;;;;8.77;3.10;;;;;;;;;;5078419;28;20461;-67
2022/05/29 02:36:24;;;;;;;8.05;2.97;;;;;;;;;;5078452;28;20032;-67
2022/05/29 02:38:50;;;;;;;7.82;3.33;;;;;;;;;;5078761;28;20060;-67
2022/05/29 02:41:18;;;;;;;8.43;3.03;;;;;;;;;;5069381;28;20029;-67
2022/05/29 02:43:47;;;;;;;14.90;3.70;;;;;;;;;;5058495;28;20090;-67
2022/05/29 02:46:21;;;;;;;14.18;3.40;;;;;;;;;;5058099;28;20048;-67
2022/05/29 02:48:51;;;;;;;9.45;3.25;;;;;;;;;;5058397;28;20035;-67
2022/05/29 02:51:27;;;;;;;14.40;3.65;;;;;;;;;;5058265;28;20063;-67
2022/05/29 02:53:53;;;;;;;9.00;3.50;;;;;;;;;;5072687;28;20033;-67
2022/05/29 02:56:19;;;;;;;10.88;3.30;;;;;;;;;;5077586;28;21108;-67
2022/05/29 02:58:49;;;;;;;13.95;3.42;;;;;;;;;;5077823;28;20040;-67
2022/05/29 03:01:33;;;;;;;7.65;3.10;;;;;;;;;;5078158;28;20031;-67
2022/05/29 03:04:19;;;;;;;13.52;3.50;;;;;;;;;;5078509;28;20029;-67
2022/05/29 03:06:51;;;;;;;12.50;3.35;;;;;;;;;;5078233;28;20102;-67
2022/05/29 03:09:20;;;;;;;13.70;3.47;;;;;;;;;;5059060;28;20071;-67
2022/05/29 03:11:46;;;;;;;22.80;4.22;;;;;;;;;;5058502;28;20045;-67
2022/05/29 03:14:12;;;;;;;11.75;3.95;;;;;;;;;;5058073;28;20033;-67
2022/05/29 03:16:41;;;;;;;19.83;4.50;;;;;;;;;;5068131;28;20032;-67
2022/05/29 03:19:07;;;;;;;13.43;3.78;;;;;;;;;;5078221;28;20103;-67
2022/05/29 03:21:36;;;;;;;11.48;4.28;;;;;;;;;;5078142;28;20086;-67
2022/05/29 03:24:27;;;;;;;9.10;4.75;;;;;;;;;;5077909;28;20488;-67
2022/05/29 03:26:58;;;;;;;12.60;3.97;;;;;;;;;;5065912;28;20037;-67
2022/05/29 03:29:29;;;;;;;11.73;4.53;;;;;;;;;;5058000;28;20029;-67
2022/05/29 03:31:55;;;;;;;12.60;4.28;;;;;;;;;;5054603;28;20041;-67
2022/05/29 03:34:22;;;;;;;15.50;4.20;;;;;;;;;;5054402;28;20401;-67
2022/05/29 03:36:49;;;;;;;12.70;5.55;;;;;;;;;;5054912;28;20496;-67
2022/05/29 03:39:16;;;;;;;11.82;3.83;;;;;;;;;;5054329;28;20028;-67
2022/05/29 03:41:45;;;;;;;9.02;4.20;;;;;;;;;;5054851;28;20033;-67
2022/05/29 03:44:19;;;;;;;13.63;3.92;;;;;;;;;;5054784;28;20032;-67
2022/05/29 03:46:45;;;;;;;12.07;3.83;;;;;;;;;;5054730;28;20036;-67
2022/05/29 03:49:13;;;;;;;10.43;4.03;;;;;;;;;;5054727;28;20393;-67
2022/05/29 03:51:39;;;;;;;7.40;3.88;;;;;;;;;;5054267;28;20115;-67
2022/05/29 03:54:06;;;;;;;10.43;3.50;;;;;;;;;;5070216;28;20067;-67
2022/05/29 03:56:32;;;;;;;12.77;3.40;;;;;;;;;;5074189;28;20502;-67
2022/05/29 03:58:58;;;;;;;17.38;3.80;;;;;;;;;;5074421;28;20032;-67
2022/05/29 04:01:25;;;;;;;10.65;3.72;;;;;;;;;;5056401;28;20017;-67
2022/05/29 04:03:54;;;;;;;14.07;3.33;;;;;;;;;;5051055;28;20578;-67
2022/05/29 04:06:24;;;;;;;14.20;3.53;;;;;;;;;;5054077;28;20544;-67
2022/05/29 04:14:21;;;;;;;11.45;3.47;;;;;;;;;;5051610;28;20041;-67
2022/05/29 04:16:47;;;;;;;9.52;2.90;;;;;;;;;;5051959;28;20017;-67
2022/05/29 04:19:14;;;;;;;12.05;3.17;;;;;;;;;;5054079;28;20029;-67
2022/05/29 04:21:40;;;;;;;6.88;3.00;;;;;;;;;;5051753;28;20044;-67
2022/05/29 04:24:06;;;;;;;9.50;2.90;;;;;;;;;;5051345;28;20029;-67
2022/05/29 04:26:33;;;;;;;9.35;3.30;;;;;;;;;;5053751;28;20033;-67
2022/05/29 04:29:00;;;;;;;8.18;3.08;;;;;;;;;;5053884;28;20135;-67
2022/05/29 04:31:27;;;;;;;13.88;6.07;;;;;;;;;;5052672;28;20114;-67
2022/05/29 04:33:53;;;;;;;12.77;3.25;;;;;;;;;;5051936;28;20150;-67
2022/05/29 04:36:19;;;;;;;9.95;3.15;;;;;;;;;;5052321;28;20032;-67
2022/05/29 04:38:45;;;;;;;10.68;3.40;;;;;;;;;;5053680;28;20115;-67
2022/05/29 04:41:11;;;;;;;8.55;2.65;;;;;;;;;;5053802;28;20392;-67
2022/05/29 04:43:38;;;;;;;9.48;3.40;;;;;;;;;;5050556;28;20036;-67
2022/05/29 04:46:04;;;;;;;8.57;3.17;;;;;;;;;;5052328;28;20479;-67
2022/05/29 04:48:30;;;;;;;9.15;3.92;;;;;;;;;;5052161;28;20036;-67
2022/05/29 04:51:00;;;;;;;9.98;3.30;;;;;;;;;;5053132;28;20021;-67
2022/05/29 04:53:27;;;;;;;17.65;3.75;;;;;;;;;;5053110;28;20114;-64
2022/05/29 04:55:54;;;;;;;11.13;3.22;;;;;;;;;;5050754;28;20071;-64
2022/05/29 04:58:20;;;;;;;10.15;3.45;;;;;;;;;;5037170;28;20048;-64
2022/05/29 05:00:47;;;;;;;14.77;4.32;;;;;;;;;;5052956;28;20033;-64
2022/05/29 05:03:13;;;;;;;8.15;3.47;;;;;;;;;;5053292;28;20021;-64
2022/05/29 05:05:39;;;;;;;6.15;3.08;;;;;;;;;;5050417;28;20033;-64
2022/05/29 05:08:05;;;;;;;10.98;3.28;;;;;;;;;;5053193;28;20032;-64
2022/05/29 05:10:31;;;;;;;10.00;3.60;;;;;;;;;;5052825;28;20036;-64
2022/05/29 05:12:57;;;;;;;12.57;3.72;;;;;;;;;;5048941;28;20029;-64
2022/05/29 05:15:23;;;;;;;6.78;2.90;;;;;;;;;;5043906;28;20029;-65
2022/05/29 05:17:49;;;;;;;14.98;3.08;;;;;;;;;;5052236;28;20021;-65
2022/05/29 05:20:15;;;;;;;8.43;3.40;;;;;;;;;;5050708;28;20074;-65
2022/05/29 05:22:42;;;;;;;9.48;3.20;;;;;;;;;;5041278;28;20099;-64
2022/05/29 05:25:09;;;;;;;9.68;3.08;;;;;;;;;;5045858;28;20141;-64
2022/05/29 05:27:35;;;;;;;10.10;3.05;;;;;;;;;;5048149;28;20060;-65
2022/05/29 05:30:01;;;;;;;11.00;3.22;;;;;;;;;;5053754;28;20495;-65
2022/05/29 05:32:27;;;;;;;15.63;4.85;;;;;;;;;;5052145;28;20027;-64
2022/05/29 05:34:53;;;;;;;6.78;3.50;;;;;;;;;;5050913;28;20021;-64
2022/05/29 05:37:19;;;;;;;10.88;3.80;;;;;;;;;;5047126;28;20027;-64
2022/05/29 05:39:45;;;;;;;8.40;2.88;;;;;;;;;;5041905;28;20112;-66
2022/05/29 05:42:11;;;;;;;13.68;3.90;;;;;;;;;;5054238;28;20028;-65
2022/05/29 05:44:38;;;;;;;8.10;3.05;;;;;;;;;;5041430;28;20123;-66
2022/05/29 05:47:04;;;;;;;10.23;3.72;;;;;;;;;;5049477;28;20481;-66
2022/05/29 05:49:30;;;;;;;9.70;2.80;;;;;;;;;;5051669;28;20028;-66
2022/05/29 05:51:58;;;;;;;11.15;3.65;;;;;;;;;;5050982;28;20036;-65
2022/05/29 05:54:24;;;;;;;9.60;3.47;;;;;;;;;;5054558;28;20033;-65
2022/05/29 05:56:51;;;;;;;9.35;3.78;;;;;;;;;;5047338;28;20501;-63
2022/05/29 05:59:17;;;;;;;8.35;3.03;;;;;;;;;;5051363;28;20103;-64
2022/05/29 06:01:43;;;;;;;11.05;3.08;;;;;;;;;;5041090;28;20091;-63
2022/05/29 06:04:10;;;;;;;10.00;3.47;;;;;;;;;;5051130;28;20154;-64
2022/05/29 06:06:36;;;;;;;8.80;3.50;;;;;;;;;;5050005;28;20037;-66
2022/05/29 06:09:02;;;;;;;16.95;3.72;;;;;;;;;;5036434;28;20029;-65
2022/05/29 06:11:29;;;;;;;13.27;3.33;;;;;;;;;;5033386;28;20536;-65
2022/05/29 06:13:56;;;;;;;10.10;3.20;;;;;;;;;;5035547;28;20036;-65
2022/05/29 06:16:22;;;;;;;12.18;3.30;;;;;;;;;;5046560;28;20032;-65
2022/05/29 06:18:49;;;;;;;12.18;3.10;;;;;;;;;;5048876;28;20485;-65
2022/05/29 06:21:15;;;;;;;10.25;3.60;;;;;;;;;;5051508;28;20025;-65
2022/05/29 06:23:41;;;;;;;15.85;3.80;;;;;;;;;;5048065;28;20052;-65
2022/05/29 06:26:12;;;;;;;14.30;3.35;;;;;;;;;;5049481;28;20081;-65
2022/05/29 06:28:38;;;;;;;7.05;2.90;;;;;;;;;;5051051;28;20033;-65
2022/05/29 06:31:05;;;;;;;13.15;2.90;;;;;;;;;;5050707;28;20051;-65
2022/05/29 06:33:31;;;;;;;12.43;3.63;;;;;;;;;;5050853;28;20401;-65
2022/05/29 06:36:11;;;;;;;10.50;2.92;;;;;;;;;;5050272;28;20041;-65
2022/05/29 06:38:37;;;;;;;9.73;3.38;;;;;;;;;;5050315;28;20036;-65
2022/05/29 06:41:07;;;;;;;9.75;2.70;;;;;;;;;;5049913;28;20096;-65
2022/05/29 06:43:34;;;;;;;9.48;3.15;;;;;;;;;;5049216;28;20477;-65
2022/05/29 06:46:01;;;;;;;8.43;3.05;;;;;;;;;;5051406;28;20413;-65
2022/05/29 06:48:27;;;;;;;8.80;2.78;;;;;;;;;;5050349;28;20080;-65
2022/05/29 06:50:53;;;;;;;11.52;2.72;;;;;;;;;;5050355;28;20568;-65
2022/05/29 06:53:20;;;;;;;13.75;2.92;;;;;;;;;;5051995;28;20091;-65
2022/05/29 06:55:53;;;;;;;15.68;3.05;;;;;;;;;;5050990;28;20067;-65
2022/05/29 06:58:19;;;;;;;13.30;2.72;;;;;;;;;;5045995;28;20037;-65
2022/05/29 07:07:16;;;;;;;9.68;3.22;;;;;;;;;;5051752;28;20032;-65
2022/05/29 07:09:11;;;;;;;8.57;2.53;;;;;;;;;;5050609;28;20527;-65
2022/05/29 07:11:40;;;;;;;8.82;2.60;;;;;;;;;;5054806;28;20392;-65
2022/05/29 07:14:07;;;;;;;9.00;2.90;;;;;;;;;;5054675;28;20075;-65
2022/05/29 07:16:34;;;;;;;9.93;2.40;;;;;;;;;;5052297;28;20025;-65
2022/05/29 07:19:00;;;;;;;7.57;2.15;;;;;;;;;;5075908;28;20108;-65
2022/05/29 07:21:28;;;;;;;5.15;2.10;;;;;;;;;;5054514;28;20029;-65
2022/05/29 07:23:54;;;;;;;5.10;2.03;;;;;;;;;;5054183;28;20029;-65
2022/05/29 07:26:21;;;;;;;11.30;2.55;;;;;;;;;;5054270;28;20024;-65
2022/05/29 07:28:47;;;;;;;7.28;1.63;;;;;;;;;;5054429;28;20409;-65
2022/05/29 07:31:14;;;;;;;8.20;1.73;;;;;;;;;;5053566;28;20028;-65
2022/05/29 07:33:40;;;;;;;5.90;1.58;;;;;;;;;;5052048;28;20043;-65
2022/05/29 07:36:10;;;;;;;8.82;1.67;;;;;;;;;;5053912;28;20017;-65
2022/05/29 07:38:37;;;;;;;3.80;1.30;;;;;;;;;;5051283;28;20516;-65
2022/05/29 07:43:18;;;;;;;2.97;1.20;;;;;;;;;;5049002;28;20029;-65
2022/05/29 07:43:49;;;;;;;6.35;1.33;;;;;;;;;;5044759;28;20397;-65
2022/05/29 07:46:15;;;;;;;3.30;1.63;;;;;;;;;;5041566;28;20053;-65
2022/05/29 07:48:42;;;;;;;4.38;1.60;;;;;;;;;;5049766;28;20029;-65
2022/05/29 07:51:09;;;;;;;5.70;1.15;;;;;;;;;;5075682;28;20536;-65
2022/05/29 07:53:35;;;;;;;3.13;1.27;;;;;;;;;;5047255;28;20040;-65
2022/05/29 07:56:03;;;;;;;2.28;1.20;;;;;;;;;;5046340;28;20029;-65
2022/05/29 07:58:29;;;;;;;3.92;1.33;;;;;;;;;;5045274;28;20044;-65
2022/05/29 08:00:55;;;;;;;3.55;1.45;;;;;;;;;;5050495;28;20025;-65
2022/05/29 08:03:23;;;;;;;2.75;1.33;;;;;;;;;;5043724;28;20053;-65
2022/05/29 08:05:50;;;;;;;5.50;1.38;;;;;;;;;;5045254;28;20100;-65
2022/05/29 08:08:16;;;;;;;7.20;1.38;;;;;;;;;;5047672;28;20017;-65
2022/05/29 08:10:43;;;;;;;6.75;1.48;;;;;;;;;;5042736;28;20025;-65
2022/05/29 08:13:09;;;;;;;2.40;1.20;;;;;;;;;;5047894;28;20409;-65
2022/05/29 08:15:36;;;;;;;9.30;1.60;;;;;;;;;;5039065;28;20022;-65
2022/05/29 08:18:02;;;;;;;6.00;1.27;;;;;;;;;;5046422;28;20033;-65
2022/05/29 08:20:29;;;;;;;12.77;1.25;;;;;;;;;;5048435;28;20497;-65
2022/05/29 08:22:55;;;;;;;8.20;1.23;;;;;;;;;;5050364;28;20017;-65
2022/05/29 08:30:53;;;;;;;3.65;1.83;;;;;;;;;;5047143;28;20040;-65
2022/05/29 08:33:22;;;;;;;6.95;2.08;;;;;;;;;;5050512;28;20047;-65
2022/05/29 08:35:50;;;;;;;3.63;1.52;;;;;;;;;;5044046;28;20022;-65
2022/05/29 08:38:17;;;;;;;6.45;1.20;;;;;;;;;;5047852;28;20510;-65
2022/05/29 08:40:45;;;;;;;6.53;1.77;;;;;;;;;;5047490;28;20044;-65
2022/05/29 08:43:12;;;;;;;4.68;1.67;;;;;;;;;;5041534;28;20041;-65
2022/05/29 08:45:39;;;;;;;3.33;1.45;;;;;;;;;;5046806;28;20029;-65
2022/05/29 08:48:05;;;;;;;5.85;1.48;;;;;;;;;;5051475;28;20028;-65
2022/05/29 08:51:01;;;;;;;4.00;1.20;;;;;;;;;;5048997;28;20033;-65
2022/05/29 08:53:35;;;;;;;4.85;1.15;;;;;;;;;;5009636;28;20164;-62
2022/05/29 08:56:06;;;;;;;7.78;1.40;;;;;;;;;;5008118;28;20026;-62
2022/05/29 08:58:39;;;;;;;4.88;1.05;;;;;;;;;;5008478;28;20111;-62
2022/05/29 09:01:06;;;;;;;;;;;;;;;;;;5008895;28;20037;-62
2022/05/29 09:03:47;;;;;;;5.30;1.13;;;;;;;;;;5009870;28;20060;-62
2022/05/29 09:06:14;;;;;;;7.30;1.17;;;;;;;;;;5010279;28;20494;-62
2022/05/29 09:08:45;;;;;;;9.70;1.70;;;;;;;;;;5009859;28;20153;-62
2022/05/29 09:11:16;;;;;;;2.20;1.10;;;;;;;;;;5008372;28;20038;-63
2022/05/29 09:13:48;;;;;;;2.30;0.85;;;;;;;;;;5005693;28;20038;-62
2022/05/29 09:16:16;;;;;;;3.45;1.33;;;;;;;;;;5009360;28;20038;-62
2022/05/29 09:18:47;;;;;;;2.17;0.95;;;;;;;;;;5010404;28;20121;-62
2022/05/29 09:21:21;;;;;;;4.80;1.52;;;;;;;;;;5009190;28;20037;-62
2022/05/29 09:24:03;;;;;;;3.92;0.90;;;;;;;;;;5011222;28;20045;-62
2022/05/29 09:26:36;;;;;;;4.68;1.40;;;;;;;;;;5009337;28;20057;-62
2022/05/29 09:29:03;;;;;;;3.08;1.80;;;;;;;;;;5016033;28;20052;-62
2022/05/29 09:31:30;;;;;;;4.53;1.13;;;;;;;;;;5036236;28;20378;-62
2022/05/29 09:33:56;;;;;;;6.03;1.42;;;;;;;;;;5032824;28;20485;-62
2022/05/29 09:36:25;;;;;;;8.27;1.45;;;;;;;;;;5037864;28;20040;-62
2022/05/29 09:39:01;;;;;;;5.25;0.98;;;;;;;;;;5033692;28;20569;-63
2022/05/29 09:42:03;;;;;;;5.70;1.13;;;;;;;;;;5041013;28;20024;-62
2022/05/29 09:44:29;;;;;;;2.15;1.20;;;;;;;;;;4978615;28;20041;-62
2022/05/29 09:49:40;;;;;;;4.50;1.20;;;;;;;;;;4990849;28;20174;-61
2022/05/29 09:49:42;;;;;;;4.55;1.05;;;;;;;;;;4974064;28;20101;-62
2022/05/29 09:52:12;;;;;;;3.30;1.00;;;;;;;;;;4974770;28;20049;-62
2022/05/29 09:54:43;;;;;;;4.38;1.30;;;;;;;;;;4977688;28;20030;-62
2022/05/29 09:57:27;;;;;;;3.72;1.00;;;;;;;;;;4972289;28;20057;-62
2022/05/29 10:00:08;;;;;;;2.65;0.90;;;;;;;;;;4979046;28;20530;-61
2022/05/29 10:02:39;;;;;;;2.13;0.98;;;;;;;;;;4983726;28;20170;-62
2022/05/29 10:05:07;;;;;;;6.07;1.60;;;;;;;;;;4989649;28;20050;-62
2022/05/29 10:07:40;;;;;;;3.42;1.10;;;;;;;;;;4989172;28;20066;-62
2022/05/29 10:10:07;;;;;;;5.35;1.27;;;;;;;;;;4989831;28;20038;-62
2022/05/29 10:12:37;;;;;;;4.88;1.05;;;;;;;;;;4989008;28;20489;-62
2022/05/29 10:15:04;;;;;;;4.68;1.40;;;;;;;;;;4989657;28;20154;-62
2022/05/29 10:17:30;;;;;;;4.80;1.40;;;;;;;;;;4990645;28;20189;-62
2022/05/29 10:19:56;;;;;;;2.30;1.23;;;;;;;;;;5041948;28;20673;-62
2022/05/29 10:22:38;;;;;;;2.97;0.98;;;;;;;;;;5045168;28;20095;-62
2022/05/29 10:25:20;;;;;;;5.75;1.27;;;;;;;;;;5040056;28;20026;-62
2022/05/29 10:27:47;;;;;;;5.88;1.15;;;;;;;;;;5049546;28;20037;-62
2022/05/29 10:30:27;;;;;;;5.25;1.50;;;;;;;;;;5037764;28;20017;-62
2022/05/29 10:33:00;;;;;;;5.28;1.30;;;;;;;;;;5048785;28;20025;-62
2022/05/29 10:35:27;;;;;;;4.43;1.20;;;;;;;;;;5041540;28;20025;-62
2022/05/29 10:37:54;;;;;;;4.15;1.40;;;;;;;;;;5041615;28;20038;-61
2022/05/29 10:40:20;;;;;;;2.08;1.08;;;;;;;;;;5035899;28;20497;-62
2022/05/29 10:42:47;;;;;;;4.38;1.13;;;;;;;;;;5039154;28;20092;-62
2022/05/29 10:45:26;;;;;;;5.70;1.92;;;;;;;;;;5043771;28;20532;-62
2022/05/29 10:47:57;;;;;;;7.88;2.47;;;;;;;;;;5035315;28;20040;-62
2022/05/29 10:50:40;;;;;;;5.15;2.45;;;;;;;;;;5042487;28;20029;-62
2022/05/29 10:53:21;;;;;;;5.90;1.52;;;;;;;;;;5036356;28;20029;-62
2022/05/29 10:55:50;;;;;;;3.45;1.35;;;;;;;;;;5035152;28;20500;-62
2022/05/29 10:58:25;;;;;;;2.60;1.30;;;;;;;;;;5035961;28;20116;-62
2022/05/29 11:01:02;;;;;;;2.95;1.27;;;;;;;;;;5034749;28;20028;-62
2022/05/29 11:03:47;;;;;;;3.97;1.20;;;;;;;;;;5054214;28;20082;-62
2022/05/29 11:06:14;;;;;;;5.38;1.25;;;;;;;;;;5051771;28;20071;-62
2022/05/29 11:08:40;;;;;;;3.97;0.80;;;;;;;;;;5053708;28;20032;-62
2022/05/29 11:11:24;;;;;;;5.68;1.67;;;;;;;;;;5055405;28;20040;-62
2022/05/29 11:13:50;;;;;;;7.03;1.52;;;;;;;;;;5055181;28;20033;-62
2022/05/29 11:16:25;;;;;;;4.40;1.20;;;;;;;;;;5055005;28;20017;-63
2022/05/29 11:19:10;;;;;;;3.30;1.15;;;;;;;;;;5054887;28;20028;-62
2022/05/29 11:21:37;;;;;;;2.10;1.10;;;;;;;;;;5054981;28;20457;-62
2022/05/29 11:24:23;;;;;;;3.17;1.35;;;;;;;;;;5054407;28;20037;-62
2022/05/29 11:26:49;;;;;;;3.33;1.20;;;;;;;;;;5054101;28;20041;-62
2022/05/29 11:29:24;;;;;;;4.55;1.80;;;;;;;;;;5055067;28;20052;-62
2022/05/29 11:31:50;;;;;;;5.13;2.58;;;;;;;;;;5054719;28;20025;-62
2022/05/29 11:34:40;;;;;;;9.48;3.20;;;;;;;;;;5054848;28;20140;-62
2022/05/29 11:37:21;;;;;;;4.43;1.95;;;;;;;;;;5012067;28;20057;-62
2022/05/29 11:39:50;;;;;;;2.90;1.40;;;;;;;;;;5011732;28;20421;-62
2022/05/29 11:42:20;;;;;;;4.70;1.40;;;;;;;;;;4998245;28;20022;-62
2022/05/29 11:44:54;;;;;;;7.57;2.60;;;;;;;;;;5012357;28;20037;-62
2022/05/29 11:53:10;;;;;;;17.35;6.47;;;;;;;;;;5010508;28;20041;-62
2022/05/29 11:55:39;;;;;;;11.15;4.15;;;;;;;;;;5012172;28;20046;-62
2022/05/29 11:58:16;;;;;;;3.20;1.20;;;;;;;;;;5011790;28;20054;-62
2022/05/29 12:01:18;;;;;;;5.47;1.67;;;;;;;;;;5012050;28;20034;-62
2022/05/29 12:03:54;;;;;;;3.72;1.10;;;;;;;;;;4953793;29;20039;-62
2022/05/29 12:06:39;;;;;;;9.27;5.20;;;;;;;;;;4948245;29;20083;-62
2022/05/29 12:09:12;;;;;;;5.90;1.95;;;;;;;;;;4953477;29;20043;-62
2022/05/29 12:11:38;;;;;;;;;;;;;;;;;;4954059;29;20043;-62
2022/05/29 12:14:17;;;;;;;4.82;2.10;;;;;;;;;;4942733;29;20318;-62
2022/05/29 12:16:45;;;;;;;3.15;0.88;;;;;;;;;;4953148;28;20039;-63
2022/05/29 12:19:15;;;;;;;7.25;1.52;;;;;;;;;;4953554;29;20039;-63
2022/05/29 12:21:49;;;;;;;3.10;1.10;;;;;;;;;;4952958;29;20035;-62
2022/05/29 12:24:18;;;;;;;7.28;2.90;;;;;;;;;;4953112;29;20043;-62
2022/05/29 12:26:54;;;;;;;8.07;3.03;;;;;;;;;;4953407;29;20027;-62
2022/05/29 12:29:23;;;;;;;4.78;1.35;;;;;;;;;;4953807;29;20442;-62
2022/05/29 12:31:53;;;;;;;3.38;1.15;;;;;;;;;;4955287;28;20043;-62
2022/05/29 12:34:23;;;;;;;2.85;1.35;;;;;;;;;;4962492;28;20071;-62
2022/05/29 12:37:07;;;;;;;5.32;1.17;;;;;;;;;;4964298;28;20030;-62
2022/05/29 12:39:46;;;;;;;7.80;1.30;;;;;;;;;;5044796;28;20040;-62
2022/05/29 12:42:27;;;;;;;5.22;1.42;;;;;;;;;;5053121;28;20086;-62
2022/05/29 12:45:10;;;;;;;37.70;18.95;;;;;;;;;;5053089;28;20040;-62
2022/05/29 12:47:45;;;;;;;113.68;53.65;;;;;;;;;;5056125;28;20060;-62
2022/05/29 12:50:28;;;;;;;9.52;5.43;;;;;;;;;;5052315;28;20052;-62
2022/05/29 12:53:23;;;;;;;5.80;1.88;;;;;;;;;;5064611;28;20128;-62
2022/05/29 12:55:56;;;;;;;3.65;1.38;;;;;;;;;;5053346;28;20028;-62
2022/05/29 12:58:35;;;;;;;5.05;1.10;;;;;;;;;;5052825;28;20037;-62
2022/05/29 13:01:14;;;;;;;4.82;1.05;;;;;;;;;;5051507;28;20112;-62
2022/05/29 13:03:52;;;;;;;3.17;1.13;;;;;;;;;;5052228;28;20041;-62
2022/05/29 13:06:41;;;;;;;2.45;1.20;;;;;;;;;;5052762;28;20028;-62
2022/05/29 13:09:10;;;;;;;3.72;1.10;;;;;;;;;;5047398;28;20064;-62
2022/05/29 13:11:39;;;;;;;2.58;1.15;;;;;;;;;;5052388;28;20029;-62
2022/05/29 13:14:07;;;;;;;5.25;1.00;;;;;;;;;;5052488;28;20033;-62
2022/05/29 13:16:38;;;;;;;4.72;1.42;;;;;;;;;;5052028;28;20409;-62
2022/05/29 13:19:17;;;;;;;2.88;1.13;;;;;;;;;;5052241;28;20044;-62
2022/05/29 13:21:57;;;;;;;5.75;1.08;;;;;;;;;;5051409;28;20079;-62
2022/05/29 13:24:24;;;;;;;5.65;1.00;;;;;;;;;;5052480;28;20029;-62
2022/05/29 13:27:10;;;;;;;4.70;1.70;;;;;;;;;;5051856;28;20021;-62
2022/05/29 13:29:39;;;;;;;4.82;1.20;;;;;;;;;;5039404;28;20125;-63
2022/05/29 13:32:16;;;;;;;3.08;1.30;;;;;;;;;;5036633;28;20053;-62
2022/05/29 13:34:46;;;;;;;3.78;1.17;;;;;;;;;;5045742;28;20463;-62
2022/05/29 13:37:24;;;;;;;3.47;1.50;;;;;;;;;;5042690;28;20526;-63
2022/05/29 13:39:54;;;;;;;6.03;1.33;;;;;;;;;;5047178;28;20066;-63
2022/05/29 13:42:29;;;;;;;2.67;1.00;;;;;;;;;;5046046;28;20060;-62
2022/05/29 13:44:56;;;;;;;9.25;1.35;;;;;;;;;;5048850;28;20060;-62
2022/05/29 13:47:31;;;;;;;4.22;1.42;;;;;;;;;;5049066;28;20067;-62
2022/05/29 13:50:00;;;;;;;7.28;1.45;;;;;;;;;;5047644;28;20025;-62
2022/05/29 13:52:32;;;;;;;3.22;1.30;;;;;;;;;;5039843;28;20032;-63
2022/05/29 13:55:01;;;;;;;4.90;1.00;;;;;;;;;;5048871;28;20067;-62
2022/05/29 14:06:30;;;;;;;3.63;1.13;;;;;;;;;;5047690;28;20041;-62
2022/05/29 14:08:57;;;;;;;5.38;1.30;;;;;;;;;;5048363;28;20052;-62
2022/05/29 14:11:42;;;;;;;3.60;1.25;;;;;;;;;;5049171;28;20024;-62
2022/05/29 14:14:27;;;;;;;5.03;1.60;;;;;;;;;;5048125;28;20032;-62
2022/05/29 14:16:54;;;;;;;4.68;1.55;;;;;;;;;;5046652;28;20029;-62
2022/05/29 14:19:39;;;;;;;6.20;1.38;;;;;;;;;;5048651;28;20021;-62
2022/05/29 14:25:15;;;;;;;6.00;1.25;;;;;;;;;;5047111;28;20033;-62
2022/05/29 14:28:02;;;;;;;8.98;1.58;;;;;;;;;;5048925;28;20054;-63
2022/05/29 14:30:29;;;;;;;7.88;2.10;;;;;;;;;;5047895;28;20447;-62
2022/05/29 14:32:55;;;;;;;3.17;0.95;;;;;;;;;;5041525;28;20047;-62
2022/05/29 14:35:39;;;;;;;4.18;1.20;;;;;;;;;;5045683;28;20032;-62
2022/05/29 14:38:06;;;;;;;4.95;1.20;;;;;;;;;;5039868;28;20419;-62
2022/05/29 14:40:43;;;;;;;5.50;0.95;;;;;;;;;;5037218;28;20112;-62
2022/05/29 14:43:15;;;;;;;3.65;1.15;;;;;;;;;;5049224;28;20378;-62
2022/05/29 14:45:43;;;;;;;3.87;0.93;;;;;;;;;;5038419;28;20040;-62
2022/05/29 14:48:13;;;;;;;2.35;0.88;;;;;;;;;;5048530;28;20263;-62
2022/05/29 14:50:48;;;;;;;5.55;1.20;;;;;;;;;;5044327;28;20041;-62
2022/05/29 14:53:23;;;;;;;5.05;1.30;;;;;;;;;;5047970;28;20032;-62
2022/05/29 14:55:55;;;;;;;3.25;0.90;;;;;;;;;;5046630;28;20040;-62
2022/05/29 14:58:30;;;;;;;3.33;1.30;;;;;;;;;;5049880;28;20128;-62
2022/05/29 15:00:58;;;;;;;1.02;0.70;;;;;;;;;;5063976;28;20026;-62
2022/05/29 15:03:28;;;;;;;2.60;0.85;;;;;;;;;;5047461;28;20381;-63
2022/05/29 15:05:57;;;;;;;1.50;1.00;;;;;;;;;;5042585;28;20025;-62
2022/05/29 15:11:13;;;;;;;5.97;1.30;;;;;;;;;;5046803;28;20021;-62
2022/05/29 15:16:26;;;;;;;3.80;1.10;;;;;;;;;;5044242;28;20042;-62
2022/05/29 15:18:52;;;;;;;4.57;1.00;;;;;;;;;;5038927;28;20108;-63
2022/05/29 15:24:09;;;;;;;2.00;0.95;;;;;;;;;;5047917;28;20115;-63
2022/05/29 15:26:37;;;;;;;3.95;0.88;;;;;;;;;;5037571;28;20041;-63
2022/05/29 15:29:09;;;;;;;2.58;0.90;;;;;;;;;;5047486;28;20045;-63
2022/05/29 15:31:36;;;;;;;4.30;1.25;;;;;;;;;;5050967;28;20033;-62
2022/05/29 15:34:20;;;;;;;3.72;1.15;;;;;;;;;;5050511;28;20420;-62
2022/05/29 15:36:46;;;;;;;5.55;1.52;;;;;;;;;;5043720;28;20108;-62
2022/05/29 15:39:25;;;;;;;1.23;0.98;;;;;;;;;;5048107;28;20159;-62
2022/05/29 15:41:54;;;;;;;3.00;1.00;;;;;;;;;;5041655;28;20110;-63
2022/05/29 15:44:39;;;;;;;1.92;0.93;;;;;;;;;;5044054;28;20401;-63